sensor_id;sensor_type;location;lat;lon;timestamp;temperature;humidity
18105;DHT22;9179;50.968;3.134;2023-07-31T00:01:26;18.90;99.90
18105;DHT22;9179;50.968;3.134;2023-07-31T00:03:52;19.00;99.90
18105;DHT22;9179;50.968;3.134;2023-07-31T00:06:19;19.00;99.90
18105;DHT22;9179;50.968;3.134;2023-07-31T00:08:46;19.00;99.90
18105;DHT22;9179;50.968;3.134;2023-07-31T00:11:13;19.00;99.90
18105;DHT22;9179;50.968;3.134;2023-07-31T00:13:40;19.00;99.90
18105;DHT22;9179;50.968;3.134;2023-07-31T00:16:08;19.00;99.90
18105;DHT22;9179;50.968;3.134;2023-07-31T00:18:35;18.90;99.90
18105;DHT22;9179;50.968;3.134;2023-07-31T00:21:02;18.90;99.90
18105;DHT22;9179;50.968;3.134;2023-07-31T00:23:29;19.00;99.90
18105;DHT22;9179;50.968;3.134;2023-07-31T00:25:56;19.00;99.90
18105;DHT22;9179;50.968;3.134;2023-07-31T00:28:22;19.00;99.90
18105;DHT22;9179;50.968;3.134;2023-07-31T00:30:49;19.00;99.90
18105;DHT22;9179;50.968;3.134;2023-07-31T00:33:17;19.00;99.90
18105;DHT22;9179;50.968;3.134;2023-07-31T00:35:44;19.00;99.90
18105;DHT22;9179;50.968;3.134;2023-07-31T00:38:11;19.00;99.90
18105;DHT22;9179;50.968;3.134;2023-07-31T00:40:38;18.90;99.90
18105;DHT22;9179;50.968;3.134;2023-07-31T00:43:05;19.00;99.90
18105;DHT22;9179;50.968;3.134;2023-07-31T00:45:32;19.00;99.90
18105;DHT22;9179;50.968;3.134;2023-07-31T00:47:59;19.00;99.90
18105;DHT22;9179;50.968;3.134;2023-07-31T00:50:28;19.00;99.90
18105;DHT22;9179;50.968;3.134;2023-07-31T00:52:55;19.00;99.90
18105;DHT22;9179;50.968;3.134;2023-07-31T00:55:22;19.00;99.90
18105;DHT22;9179;50.968;3.134;2023-07-31T00:57:49;19.10;99.90
18105;DHT22;9179;50.968;3.134;2023-07-31T01:00:18;19.10;99.90
18105;DHT22;9179;50.968;3.134;2023-07-31T01:02:46;19.00;99.90
18105;DHT22;9179;50.968;3.134;2023-07-31T01:05:13;19.00;99.90
18105;DHT22;9179;50.968;3.134;2023-07-31T01:07:46;19.00;99.90
18105;DHT22;9179;50.968;3.134;2023-07-31T01:10:17;19.10;99.90
18105;DHT22;9179;50.968;3.134;2023-07-31T01:12:48;19.10;99.90
18105;DHT22;9179;50.968;3.134;2023-07-31T01:15:17;19.10;99.90
18105;DHT22;9179;50.968;3.134;2023-07-31T01:17:44;19.10;99.90
18105;DHT22;9179;50.968;3.134;2023-07-31T01:20:13;19.10;99.90
18105;DHT22;9179;50.968;3.134;2023-07-31T01:25:56;19.10;99.90
18105;DHT22;9179;50.968;3.134;2023-07-31T01:28:29;19.10;99.90
18105;DHT22;9179;50.968;3.134;2023-07-31T01:31:00;19.20;99.90
18105;DHT22;9179;50.968;3.134;2023-07-31T01:33:28;19.20;99.90
18105;DHT22;9179;50.968;3.134;2023-07-31T01:35:56;19.20;99.90
18105;DHT22;9179;50.968;3.134;2023-07-31T01:38:23;19.20;99.90
18105;DHT22;9179;50.968;3.134;2023-07-31T01:40:51;19.20;99.90
18105;DHT22;9179;50.968;3.134;2023-07-31T01:43:20;19.20;99.90
18105;DHT22;9179;50.968;3.134;2023-07-31T01:45:47;19.20;99.90
18105;DHT22;9179;50.968;3.134;2023-07-31T01:48:14;19.30;99.90
18105;DHT22;9179;50.968;3.134;2023-07-31T01:50:40;19.30;99.90
18105;DHT22;9179;50.968;3.134;2023-07-31T01:53:07;19.30;99.90
18105;DHT22;9179;50.968;3.134;2023-07-31T01:55:34;19.40;99.90
18105;DHT22;9179;50.968;3.134;2023-07-31T01:58:01;19.30;99.90
18105;DHT22;9179;50.968;3.134;2023-07-31T02:00:29;19.40;99.90
18105;DHT22;9179;50.968;3.134;2023-07-31T02:02:56;19.50;99.90
18105;DHT22;9179;50.968;3.134;2023-07-31T02:05:23;19.40;99.90
18105;DHT22;9179;50.968;3.134;2023-07-31T02:07:50;19.40;99.90
18105;DHT22;9179;50.968;3.134;2023-07-31T02:10:17;19.40;99.90
18105;DHT22;9179;50.968;3.134;2023-07-31T02:12:44;19.30;99.90
18105;DHT22;9179;50.968;3.134;2023-07-31T02:15:11;19.30;99.90
18105;DHT22;9179;50.968;3.134;2023-07-31T02:17:39;19.30;99.90
18105;DHT22;9179;50.968;3.134;2023-07-31T02:20:07;19.30;99.90
18105;DHT22;9179;50.968;3.134;2023-07-31T02:22:34;19.40;99.90
18105;DHT22;9179;50.968;3.134;2023-07-31T02:25:01;19.30;99.90
18105;DHT22;9179;50.968;3.134;2023-07-31T02:27:27;19.30;99.90
18105;DHT22;9179;50.968;3.134;2023-07-31T02:29:54;19.40;99.90
18105;DHT22;9179;50.968;3.134;2023-07-31T02:32:21;19.40;99.90
18105;DHT22;9179;50.968;3.134;2023-07-31T02:34:50;19.30;99.90
18105;DHT22;9179;50.968;3.134;2023-07-31T02:37:16;19.40;99.90
18105;DHT22;9179;50.968;3.134;2023-07-31T02:39:43;19.30;99.90
18105;DHT22;9179;50.968;3.134;2023-07-31T02:42:10;18.80;99.90
18105;DHT22;9179;50.968;3.134;2023-07-31T02:44:37;18.20;99.90
18105;DHT22;9179;50.968;3.134;2023-07-31T02:47:04;17.90;99.90
18105;DHT22;9179;50.968;3.134;2023-07-31T02:49:31;17.60;99.90
18105;DHT22;9179;50.968;3.134;2023-07-31T02:51:59;17.50;99.90
18105;DHT22;9179;50.968;3.134;2023-07-31T02:54:26;17.50;99.90
18105;DHT22;9179;50.968;3.134;2023-07-31T02:56:53;17.60;99.90
18105;DHT22;9179;50.968;3.134;2023-07-31T02:59:20;17.60;99.90
18105;DHT22;9179;50.968;3.134;2023-07-31T03:01:47;17.60;99.90
18105;DHT22;9179;50.968;3.134;2023-07-31T03:04:14;17.50;99.90
18105;DHT22;9179;50.968;3.134;2023-07-31T03:06:41;17.60;99.90
18105;DHT22;9179;50.968;3.134;2023-07-31T03:09:09;17.60;99.90
18105;DHT22;9179;50.968;3.134;2023-07-31T03:11:36;17.60;99.90
18105;DHT22;9179;50.968;3.134;2023-07-31T03:14:03;17.60;99.90
18105;DHT22;9179;50.968;3.134;2023-07-31T03:16:30;17.70;99.90
18105;DHT22;9179;50.968;3.134;2023-07-31T03:18:57;17.70;99.90
18105;DHT22;9179;50.968;3.134;2023-07-31T03:21:24;17.80;99.90
18105;DHT22;9179;50.968;3.134;2023-07-31T03:23:50;17.90;99.90
18105;DHT22;9179;50.968;3.134;2023-07-31T03:26:19;18.00;99.90
18105;DHT22;9179;50.968;3.134;2023-07-31T03:28:45;17.80;99.90
18105;DHT22;9179;50.968;3.134;2023-07-31T03:31:12;17.70;99.90
18105;DHT22;9179;50.968;3.134;2023-07-31T03:33:39;17.70;99.90
18105;DHT22;9179;50.968;3.134;2023-07-31T03:36:06;17.80;99.90
18105;DHT22;9179;50.968;3.134;2023-07-31T03:38:33;17.80;99.90
18105;DHT22;9179;50.968;3.134;2023-07-31T03:41:00;17.80;99.90
18105;DHT22;9179;50.968;3.134;2023-07-31T03:43:29;17.90;99.90
18105;DHT22;9179;50.968;3.134;2023-07-31T03:45:56;18.00;99.90
18105;DHT22;9179;50.968;3.134;2023-07-31T03:48:23;18.10;99.90
18105;DHT22;9179;50.968;3.134;2023-07-31T03:50:49;18.10;99.90
18105;DHT22;9179;50.968;3.134;2023-07-31T03:53:16;18.20;99.90
18105;DHT22;9179;50.968;3.134;2023-07-31T03:55:43;18.30;99.90
18105;DHT22;9179;50.968;3.134;2023-07-31T03:58:10;18.40;99.90
18105;DHT22;9179;50.968;3.134;2023-07-31T04:00:40;18.40;99.90
18105;DHT22;9179;50.968;3.134;2023-07-31T04:03:07;18.50;99.90
18105;DHT22;9179;50.968;3.134;2023-07-31T04:05:38;18.50;99.90
18105;DHT22;9179;50.968;3.134;2023-07-31T04:08:05;18.50;99.90
18105;DHT22;9179;50.968;3.134;2023-07-31T04:10:31;18.50;99.90
18105;DHT22;9179;50.968;3.134;2023-07-31T04:12:59;18.60;99.90
18105;DHT22;9179;50.968;3.134;2023-07-31T04:15:26;18.60;99.90
18105;DHT22;9179;50.968;3.134;2023-07-31T04:17:54;18.60;99.90
18105;DHT22;9179;50.968;3.134;2023-07-31T04:20:21;18.60;99.90
18105;DHT22;9179;50.968;3.134;2023-07-31T04:22:48;18.60;99.90
18105;DHT22;9179;50.968;3.134;2023-07-31T04:25:15;18.60;99.90
18105;DHT22;9179;50.968;3.134;2023-07-31T04:27:42;18.70;99.90
18105;DHT22;9179;50.968;3.134;2023-07-31T04:30:09;18.60;99.90
18105;DHT22;9179;50.968;3.134;2023-07-31T04:32:36;18.70;99.90
18105;DHT22;9179;50.968;3.134;2023-07-31T04:35:05;18.80;99.90
18105;DHT22;9179;50.968;3.134;2023-07-31T04:37:32;18.80;99.90
18105;DHT22;9179;50.968;3.134;2023-07-31T04:39:59;18.80;99.90
18105;DHT22;9179;50.968;3.134;2023-07-31T04:42:25;18.80;99.90
18105;DHT22;9179;50.968;3.134;2023-07-31T04:44:52;18.90;99.90
18105;DHT22;9179;50.968;3.134;2023-07-31T04:47:19;19.00;99.90
18105;DHT22;9179;50.968;3.134;2023-07-31T04:49:46;19.00;99.90
18105;DHT22;9179;50.968;3.134;2023-07-31T04:52:14;19.00;99.90
18105;DHT22;9179;50.968;3.134;2023-07-31T04:54:41;19.10;99.90
18105;DHT22;9179;50.968;3.134;2023-07-31T04:57:09;19.10;99.90
18105;DHT22;9179;50.968;3.134;2023-07-31T04:59:36;19.20;99.90
18105;DHT22;9179;50.968;3.134;2023-07-31T05:02:03;19.10;99.90
18105;DHT22;9179;50.968;3.134;2023-07-31T05:04:30;19.10;99.90
18105;DHT22;9179;50.968;3.134;2023-07-31T05:06:57;19.10;99.90
18105;DHT22;9179;50.968;3.134;2023-07-31T05:09:26;19.20;99.90
18105;DHT22;9179;50.968;3.134;2023-07-31T05:11:52;19.20;99.90
18105;DHT22;9179;50.968;3.134;2023-07-31T05:14:19;19.20;99.90
18105;DHT22;9179;50.968;3.134;2023-07-31T05:16:46;19.20;99.90
18105;DHT22;9179;50.968;3.134;2023-07-31T05:19:13;19.20;99.90
18105;DHT22;9179;50.968;3.134;2023-07-31T05:21:40;19.20;99.90
18105;DHT22;9179;50.968;3.134;2023-07-31T05:24:07;19.20;99.90
18105;DHT22;9179;50.968;3.134;2023-07-31T05:26:35;19.30;99.90
18105;DHT22;9179;50.968;3.134;2023-07-31T05:29:03;19.20;99.90
18105;DHT22;9179;50.968;3.134;2023-07-31T05:31:30;19.30;99.90
18105;DHT22;9179;50.968;3.134;2023-07-31T05:33:58;19.40;99.90
18105;DHT22;9179;50.968;3.134;2023-07-31T05:36:24;19.40;99.90
18105;DHT22;9179;50.968;3.134;2023-07-31T05:38:51;19.50;99.90
18105;DHT22;9179;50.968;3.134;2023-07-31T05:41:18;19.60;99.90
18105;DHT22;9179;50.968;3.134;2023-07-31T05:43:46;19.60;99.90
18105;DHT22;9179;50.968;3.134;2023-07-31T05:46:13;19.50;99.90
18105;DHT22;9179;50.968;3.134;2023-07-31T05:48:40;19.40;99.90
18105;DHT22;9179;50.968;3.134;2023-07-31T05:51:07;19.40;99.90
18105;DHT22;9179;50.968;3.134;2023-07-31T05:53:34;19.30;99.90
18105;DHT22;9179;50.968;3.134;2023-07-31T05:56:03;19.50;99.90
18105;DHT22;9179;50.968;3.134;2023-07-31T05:58:30;19.60;99.90
18105;DHT22;9179;50.968;3.134;2023-07-31T06:00:58;19.60;99.90
18105;DHT22;9179;50.968;3.134;2023-07-31T06:03:25;19.60;99.90
18105;DHT22;9179;50.968;3.134;2023-07-31T06:05:52;19.60;99.90
18105;DHT22;9179;50.968;3.134;2023-07-31T06:08:19;19.50;99.90
18105;DHT22;9179;50.968;3.134;2023-07-31T06:10:46;19.50;99.90
18105;DHT22;9179;50.968;3.134;2023-07-31T06:13:13;19.60;99.90
18105;DHT22;9179;50.968;3.134;2023-07-31T06:15:40;19.80;99.90
18105;DHT22;9179;50.968;3.134;2023-07-31T06:18:08;19.90;99.90
18105;DHT22;9179;50.968;3.134;2023-07-31T06:20:36;19.90;99.90
18105;DHT22;9179;50.968;3.134;2023-07-31T06:23:02;20.00;99.90
18105;DHT22;9179;50.968;3.134;2023-07-31T06:25:29;20.00;99.90
18105;DHT22;9179;50.968;3.134;2023-07-31T06:27:57;20.10;99.90
18105;DHT22;9179;50.968;3.134;2023-07-31T06:30:23;20.10;99.90
18105;DHT22;9179;50.968;3.134;2023-07-31T06:32:50;20.10;99.90
18105;DHT22;9179;50.968;3.134;2023-07-31T06:35:19;20.30;99.90
18105;DHT22;9179;50.968;3.134;2023-07-31T06:37:46;20.40;99.90
18105;DHT22;9179;50.968;3.134;2023-07-31T06:40:13;20.40;99.90
18105;DHT22;9179;50.968;3.134;2023-07-31T06:42:39;20.40;99.90
18105;DHT22;9179;50.968;3.134;2023-07-31T06:45:07;20.40;99.90
18105;DHT22;9179;50.968;3.134;2023-07-31T06:47:34;20.40;99.90
18105;DHT22;9179;50.968;3.134;2023-07-31T06:50:01;20.20;99.90
18105;DHT22;9179;50.968;3.134;2023-07-31T06:52:30;20.20;99.90
18105;DHT22;9179;50.968;3.134;2023-07-31T06:55:03;20.10;99.90
18105;DHT22;9179;50.968;3.134;2023-07-31T06:57:30;20.30;99.90
18105;DHT22;9179;50.968;3.134;2023-07-31T06:59:57;19.90;99.90
18105;DHT22;9179;50.968;3.134;2023-07-31T07:02:24;19.10;99.90
18105;DHT22;9179;50.968;3.134;2023-07-31T07:04:51;18.70;99.90
18105;DHT22;9179;50.968;3.134;2023-07-31T07:07:18;18.50;99.90
18105;DHT22;9179;50.968;3.134;2023-07-31T07:09:46;18.50;99.90
18105;DHT22;9179;50.968;3.134;2023-07-31T07:12:13;18.50;99.90
18105;DHT22;9179;50.968;3.134;2023-07-31T07:14:40;18.80;99.90
18105;DHT22;9179;50.968;3.134;2023-07-31T07:17:07;19.10;99.90
18105;DHT22;9179;50.968;3.134;2023-07-31T07:19:34;19.20;99.90
18105;DHT22;9179;50.968;3.134;2023-07-31T07:22:00;19.30;99.90
18105;DHT22;9179;50.968;3.134;2023-07-31T07:24:28;19.50;99.90
18105;DHT22;9179;50.968;3.134;2023-07-31T07:26:56;19.50;99.90
18105;DHT22;9179;50.968;3.134;2023-07-31T07:29:23;19.60;99.90
18105;DHT22;9179;50.968;3.134;2023-07-31T07:31:50;19.70;99.90
18105;DHT22;9179;50.968;3.134;2023-07-31T07:34:16;19.70;99.90
18105;DHT22;9179;50.968;3.134;2023-07-31T07:36:43;19.90;99.90
18105;DHT22;9179;50.968;3.134;2023-07-31T07:39:11;20.10;99.90
18105;DHT22;9179;50.968;3.134;2023-07-31T07:41:38;20.40;99.90
18105;DHT22;9179;50.968;3.134;2023-07-31T07:44:06;20.70;99.90
18105;DHT22;9179;50.968;3.134;2023-07-31T07:46:33;20.70;99.90
18105;DHT22;9179;50.968;3.134;2023-07-31T07:49:00;20.50;99.90
18105;DHT22;9179;50.968;3.134;2023-07-31T07:51:27;20.40;99.90
18105;DHT22;9179;50.968;3.134;2023-07-31T07:53:55;20.10;99.90
18105;DHT22;9179;50.968;3.134;2023-07-31T07:56:23;20.20;99.90
18105;DHT22;9179;50.968;3.134;2023-07-31T07:58:50;20.30;99.90
18105;DHT22;9179;50.968;3.134;2023-07-31T08:01:18;20.40;99.90
18105;DHT22;9179;50.968;3.134;2023-07-31T08:03:45;20.40;99.90
18105;DHT22;9179;50.968;3.134;2023-07-31T08:06:12;20.40;99.90
18105;DHT22;9179;50.968;3.134;2023-07-31T08:08:39;20.60;99.90
18105;DHT22;9179;50.968;3.134;2023-07-31T08:11:06;20.50;99.90
18105;DHT22;9179;50.968;3.134;2023-07-31T08:13:33;20.20;99.90
18105;DHT22;9179;50.968;3.134;2023-07-31T08:16:02;20.40;99.90
18105;DHT22;9179;50.968;3.134;2023-07-31T08:18:31;20.50;99.90
18105;DHT22;9179;50.968;3.134;2023-07-31T08:20:58;20.40;99.90
18105;DHT22;9179;50.968;3.134;2023-07-31T08:23:25;20.30;99.90
18105;DHT22;9179;50.968;3.134;2023-07-31T08:25:51;20.30;99.90
18105;DHT22;9179;50.968;3.134;2023-07-31T08:28:18;20.30;99.90
18105;DHT22;9179;50.968;3.134;2023-07-31T08:30:45;20.40;99.90
18105;DHT22;9179;50.968;3.134;2023-07-31T08:33:12;19.80;99.90
18105;DHT22;9179;50.968;3.134;2023-07-31T08:35:40;19.60;99.90
18105;DHT22;9179;50.968;3.134;2023-07-31T08:38:07;19.50;99.90
18105;DHT22;9179;50.968;3.134;2023-07-31T08:40:36;19.40;99.90
18105;DHT22;9179;50.968;3.134;2023-07-31T08:43:03;19.50;99.90
18105;DHT22;9179;50.968;3.134;2023-07-31T08:45:31;19.50;99.90
18105;DHT22;9179;50.968;3.134;2023-07-31T08:47:59;19.50;99.90
18105;DHT22;9179;50.968;3.134;2023-07-31T08:50:26;19.80;99.90
18105;DHT22;9179;50.968;3.134;2023-07-31T08:52:54;19.80;99.90
18105;DHT22;9179;50.968;3.134;2023-07-31T08:55:22;19.90;99.90
18105;DHT22;9179;50.968;3.134;2023-07-31T08:57:51;20.00;99.90
18105;DHT22;9179;50.968;3.134;2023-07-31T09:00:20;20.20;99.90
18105;DHT22;9179;50.968;3.134;2023-07-31T09:02:56;20.70;99.90
18105;DHT22;9179;50.968;3.134;2023-07-31T09:05:26;20.80;99.90
18105;DHT22;9179;50.968;3.134;2023-07-31T09:07:56;21.00;99.90
18105;DHT22;9179;50.968;3.134;2023-07-31T09:10:23;21.40;99.90
18105;DHT22;9179;50.968;3.134;2023-07-31T09:12:51;21.30;99.90
18105;DHT22;9179;50.968;3.134;2023-07-31T09:15:19;20.70;99.90
18105;DHT22;9179;50.968;3.134;2023-07-31T09:17:46;20.20;99.90
18105;DHT22;9179;50.968;3.134;2023-07-31T09:20:14;20.00;99.90
18105;DHT22;9179;50.968;3.134;2023-07-31T09:22:42;20.00;99.90
18105;DHT22;9179;50.968;3.134;2023-07-31T09:25:18;20.10;99.90
18105;DHT22;9179;50.968;3.134;2023-07-31T09:27:52;20.50;99.90
18105;DHT22;9179;50.968;3.134;2023-07-31T09:30:20;20.90;99.90
18105;DHT22;9179;50.968;3.134;2023-07-31T09:32:48;21.30;99.90
18105;DHT22;9179;50.968;3.134;2023-07-31T09:35:19;21.80;99.90
18105;DHT22;9179;50.968;3.134;2023-07-31T09:37:51;21.20;99.90
18105;DHT22;9179;50.968;3.134;2023-07-31T09:40:33;21.20;99.90
18105;DHT22;9179;50.968;3.134;2023-07-31T09:43:01;21.40;99.90
18105;DHT22;9179;50.968;3.134;2023-07-31T09:45:29;21.30;99.90
18105;DHT22;9179;50.968;3.134;2023-07-31T09:47:56;20.90;99.90
18105;DHT22;9179;50.968;3.134;2023-07-31T09:50:24;20.90;99.90
18105;DHT22;9179;50.968;3.134;2023-07-31T09:52:52;20.80;99.90
18105;DHT22;9179;50.968;3.134;2023-07-31T09:55:19;20.40;99.90
18105;DHT22;9179;50.968;3.134;2023-07-31T09:57:48;20.10;99.90
18105;DHT22;9179;50.968;3.134;2023-07-31T10:00:17;19.90;99.90
18105;DHT22;9179;50.968;3.134;2023-07-31T10:02:46;19.90;99.90
18105;DHT22;9179;50.968;3.134;2023-07-31T10:05:14;19.90;99.90
18105;DHT22;9179;50.968;3.134;2023-07-31T10:07:43;20.30;99.90
18105;DHT22;9179;50.968;3.134;2023-07-31T10:10:10;20.80;99.90
18105;DHT22;9179;50.968;3.134;2023-07-31T10:12:38;21.00;99.90
18105;DHT22;9179;50.968;3.134;2023-07-31T10:15:09;21.30;99.90
18105;DHT22;9179;50.968;3.134;2023-07-31T10:17:36;22.00;99.90
18105;DHT22;9179;50.968;3.134;2023-07-31T10:20:03;22.50;99.90
18105;DHT22;9179;50.968;3.134;2023-07-31T10:22:31;23.00;99.90
18105;DHT22;9179;50.968;3.134;2023-07-31T10:24:59;23.50;99.90
18105;DHT22;9179;50.968;3.134;2023-07-31T10:27:26;23.90;99.90
18105;DHT22;9179;50.968;3.134;2023-07-31T10:29:55;23.80;99.90
18105;DHT22;9179;50.968;3.134;2023-07-31T10:32:25;23.60;99.90
18105;DHT22;9179;50.968;3.134;2023-07-31T10:34:53;23.30;99.90
18105;DHT22;9179;50.968;3.134;2023-07-31T10:37:22;23.00;99.90
18105;DHT22;9179;50.968;3.134;2023-07-31T10:39:57;23.20;99.90
18105;DHT22;9179;50.968;3.134;2023-07-31T10:42:29;23.60;99.90
18105;DHT22;9179;50.968;3.134;2023-07-31T10:44:58;23.50;99.90
18105;DHT22;9179;50.968;3.134;2023-07-31T10:47:26;23.40;99.90
18105;DHT22;9179;50.968;3.134;2023-07-31T10:50:11;23.30;99.90
18105;DHT22;9179;50.968;3.134;2023-07-31T10:52:38;23.40;99.90
18105;DHT22;9179;50.968;3.134;2023-07-31T10:55:27;23.40;99.90
18105;DHT22;9179;50.968;3.134;2023-07-31T10:57:55;23.30;99.90
18105;DHT22;9179;50.968;3.134;2023-07-31T11:00:26;23.20;99.90
18105;DHT22;9179;50.968;3.134;2023-07-31T11:03:03;23.40;99.90
18105;DHT22;9179;50.968;3.134;2023-07-31T11:05:47;23.80;99.90
18105;DHT22;9179;50.968;3.134;2023-07-31T11:08:16;23.80;99.90
18105;DHT22;9179;50.968;3.134;2023-07-31T11:10:44;23.30;99.90
18105;DHT22;9179;50.968;3.134;2023-07-31T11:13:11;23.00;99.90
18105;DHT22;9179;50.968;3.134;2023-07-31T11:15:38;22.90;99.90
18105;DHT22;9179;50.968;3.134;2023-07-31T11:18:07;23.00;99.90
18105;DHT22;9179;50.968;3.134;2023-07-31T11:20:37;23.00;99.90
18105;DHT22;9179;50.968;3.134;2023-07-31T11:23:07;23.00;99.90
18105;DHT22;9179;50.968;3.134;2023-07-31T11:25:34;23.10;99.90
18105;DHT22;9179;50.968;3.134;2023-07-31T11:28:04;23.40;99.90
18105;DHT22;9179;50.968;3.134;2023-07-31T11:30:31;23.40;99.90
18105;DHT22;9179;50.968;3.134;2023-07-31T11:32:58;23.30;99.90
18105;DHT22;9179;50.968;3.134;2023-07-31T11:35:26;23.30;99.90
18105;DHT22;9179;50.968;3.134;2023-07-31T11:37:53;23.60;99.90
18105;DHT22;9179;50.968;3.134;2023-07-31T11:40:20;23.70;99.90
18105;DHT22;9179;50.968;3.134;2023-07-31T11:42:47;23.70;99.90
18105;DHT22;9179;50.968;3.134;2023-07-31T11:45:13;23.70;99.90
18105;DHT22;9179;50.968;3.134;2023-07-31T11:47:40;23.80;99.90
18105;DHT22;9179;50.968;3.134;2023-07-31T11:50:11;23.60;99.90
18105;DHT22;9179;50.968;3.134;2023-07-31T11:52:42;23.40;99.90
18105;DHT22;9179;50.968;3.134;2023-07-31T11:55:10;23.20;99.90
18105;DHT22;9179;50.968;3.134;2023-07-31T11:57:38;23.20;99.90
18105;DHT22;9179;50.968;3.134;2023-07-31T12:00:08;23.00;99.90
18105;DHT22;9179;50.968;3.134;2023-07-31T12:02:37;22.80;99.90
18105;DHT22;9179;50.968;3.134;2023-07-31T12:05:05;22.60;99.90
18105;DHT22;9179;50.968;3.134;2023-07-31T12:07:49;22.50;99.90
18105;DHT22;9179;50.968;3.134;2023-07-31T12:10:24;22.20;99.90
18105;DHT22;9179;50.968;3.134;2023-07-31T12:13:00;21.90;99.90
18105;DHT22;9179;50.968;3.134;2023-07-31T12:15:36;21.60;99.90
18105;DHT22;9179;50.968;3.134;2023-07-31T12:18:05;21.70;99.90
18105;DHT22;9179;50.968;3.134;2023-07-31T12:20:32;21.80;99.90
18105;DHT22;9179;50.968;3.134;2023-07-31T12:23:01;21.70;99.90
18105;DHT22;9179;50.968;3.134;2023-07-31T12:25:32;21.40;99.90
18105;DHT22;9179;50.968;3.134;2023-07-31T12:28:04;21.20;99.90
18105;DHT22;9179;50.968;3.134;2023-07-31T12:30:33;20.90;99.90
18105;DHT22;9179;50.968;3.134;2023-07-31T12:33:03;20.40;99.90
18105;DHT22;9179;50.968;3.134;2023-07-31T12:35:35;20.10;99.90
18105;DHT22;9179;50.968;3.134;2023-07-31T12:38:04;20.00;99.90
18105;DHT22;9179;50.968;3.134;2023-07-31T12:40:31;19.70;99.90
18105;DHT22;9179;50.968;3.134;2023-07-31T12:42:58;19.80;99.90
18105;DHT22;9179;50.968;3.134;2023-07-31T12:45:27;19.70;99.90
18105;DHT22;9179;50.968;3.134;2023-07-31T12:47:54;19.80;99.90
18105;DHT22;9179;50.968;3.134;2023-07-31T12:50:21;19.80;99.90
18105;DHT22;9179;50.968;3.134;2023-07-31T12:52:49;19.90;99.90
18105;DHT22;9179;50.968;3.134;2023-07-31T12:55:17;19.80;99.90
18105;DHT22;9179;50.968;3.134;2023-07-31T12:57:44;19.80;99.90
18105;DHT22;9179;50.968;3.134;2023-07-31T13:00:13;19.80;99.90
18105;DHT22;9179;50.968;3.134;2023-07-31T13:02:40;19.90;99.90
18105;DHT22;9179;50.968;3.134;2023-07-31T13:05:07;19.90;99.90
18105;DHT22;9179;50.968;3.134;2023-07-31T13:07:34;19.80;99.90
18105;DHT22;9179;50.968;3.134;2023-07-31T13:10:01;19.70;99.90
18105;DHT22;9179;50.968;3.134;2023-07-31T13:12:29;19.80;99.90
18105;DHT22;9179;50.968;3.134;2023-07-31T13:14:56;20.00;99.90
18105;DHT22;9179;50.968;3.134;2023-07-31T13:17:23;20.10;99.90
18105;DHT22;9179;50.968;3.134;2023-07-31T13:19:50;20.10;99.90
18105;DHT22;9179;50.968;3.134;2023-07-31T13:22:17;20.20;99.90
18105;DHT22;9179;50.968;3.134;2023-07-31T13:24:44;20.10;99.90
18105;DHT22;9179;50.968;3.134;2023-07-31T13:27:11;20.10;99.90
18105;DHT22;9179;50.968;3.134;2023-07-31T13:29:39;20.10;99.90
18105;DHT22;9179;50.968;3.134;2023-07-31T13:32:06;20.00;99.90
18105;DHT22;9179;50.968;3.134;2023-07-31T13:34:33;20.10;99.90
18105;DHT22;9179;50.968;3.134;2023-07-31T13:37:00;20.30;99.90
18105;DHT22;9179;50.968;3.134;2023-07-31T13:39:26;20.60;99.90
18105;DHT22;9179;50.968;3.134;2023-07-31T13:41:53;20.50;99.90
18105;DHT22;9179;50.968;3.134;2023-07-31T13:44:21;20.20;99.90
18105;DHT22;9179;50.968;3.134;2023-07-31T13:46:49;20.20;99.90
18105;DHT22;9179;50.968;3.134;2023-07-31T13:49:16;20.20;99.90
18105;DHT22;9179;50.968;3.134;2023-07-31T13:51:43;20.10;99.90
18105;DHT22;9179;50.968;3.134;2023-07-31T13:54:10;19.90;99.90
18105;DHT22;9179;50.968;3.134;2023-07-31T13:56:38;20.00;99.90
18105;DHT22;9179;50.968;3.134;2023-07-31T13:59:05;20.10;99.90
18105;DHT22;9179;50.968;3.134;2023-07-31T14:01:32;20.10;99.90
18105;DHT22;9179;50.968;3.134;2023-07-31T14:04:01;20.00;99.90
18105;DHT22;9179;50.968;3.134;2023-07-31T14:06:28;19.90;99.90
18105;DHT22;9179;50.968;3.134;2023-07-31T14:08:54;19.80;99.90
18105;DHT22;9179;50.968;3.134;2023-07-31T14:11:22;19.80;99.90
18105;DHT22;9179;50.968;3.134;2023-07-31T14:13:50;20.00;99.90
18105;DHT22;9179;50.968;3.134;2023-07-31T14:16:17;20.00;99.90
18105;DHT22;9179;50.968;3.134;2023-07-31T14:18:44;20.00;99.90
18105;DHT22;9179;50.968;3.134;2023-07-31T14:21:13;20.20;99.90
18105;DHT22;9179;50.968;3.134;2023-07-31T14:23:58;20.30;99.90
18105;DHT22;9179;50.968;3.134;2023-07-31T14:26:25;20.00;99.90
18105;DHT22;9179;50.968;3.134;2023-07-31T14:28:58;20.00;99.90
18105;DHT22;9179;50.968;3.134;2023-07-31T14:31:43;20.10;99.90
18105;DHT22;9179;50.968;3.134;2023-07-31T14:34:10;20.20;99.90
18105;DHT22;9179;50.968;3.134;2023-07-31T14:36:44;20.40;99.90
18105;DHT22;9179;50.968;3.134;2023-07-31T14:39:37;20.30;99.90
18105;DHT22;9179;50.968;3.134;2023-07-31T14:42:27;20.40;99.90
18105;DHT22;9179;50.968;3.134;2023-07-31T14:48:01;20.30;99.90
18105;DHT22;9179;50.968;3.134;2023-07-31T14:50:48;20.30;99.90
18105;DHT22;9179;50.968;3.134;2023-07-31T14:54:06;20.30;99.90
18105;DHT22;9179;50.968;3.134;2023-07-31T14:56:47;20.20;99.90
18105;DHT22;9179;50.968;3.134;2023-07-31T14:59:14;20.30;99.90
18105;DHT22;9179;50.968;3.134;2023-07-31T15:01:41;20.40;99.90
18105;DHT22;9179;50.968;3.134;2023-07-31T15:04:08;20.20;99.90
18105;DHT22;9179;50.968;3.134;2023-07-31T15:06:35;20.20;99.90
18105;DHT22;9179;50.968;3.134;2023-07-31T15:09:03;20.20;99.90
18105;DHT22;9179;50.968;3.134;2023-07-31T15:11:30;20.00;99.90
18105;DHT22;9179;50.968;3.134;2023-07-31T15:13:57;20.00;99.90
18105;DHT22;9179;50.968;3.134;2023-07-31T15:16:24;20.20;99.90
18105;DHT22;9179;50.968;3.134;2023-07-31T15:18:51;20.30;99.90
18105;DHT22;9179;50.968;3.134;2023-07-31T15:21:18;20.30;99.90
18105;DHT22;9179;50.968;3.134;2023-07-31T15:23:45;20.20;99.90
18105;DHT22;9179;50.968;3.134;2023-07-31T15:26:13;20.30;99.90
18105;DHT22;9179;50.968;3.134;2023-07-31T15:28:40;20.30;99.90
18105;DHT22;9179;50.968;3.134;2023-07-31T15:31:07;20.30;99.90
18105;DHT22;9179;50.968;3.134;2023-07-31T15:33:34;20.10;99.90
18105;DHT22;9179;50.968;3.134;2023-07-31T15:36:01;20.00;99.90
18105;DHT22;9179;50.968;3.134;2023-07-31T15:38:28;20.00;99.90
18105;DHT22;9179;50.968;3.134;2023-07-31T15:40:55;20.10;99.90
18105;DHT22;9179;50.968;3.134;2023-07-31T15:43:23;20.10;99.90
18105;DHT22;9179;50.968;3.134;2023-07-31T15:45:50;20.10;99.90
18105;DHT22;9179;50.968;3.134;2023-07-31T15:48:17;20.10;99.90
18105;DHT22;9179;50.968;3.134;2023-07-31T15:50:44;20.10;99.90
18105;DHT22;9179;50.968;3.134;2023-07-31T15:53:11;20.10;99.90
18105;DHT22;9179;50.968;3.134;2023-07-31T15:55:38;20.10;99.90
18105;DHT22;9179;50.968;3.134;2023-07-31T15:58:05;20.00;99.90